Hlavní strana
METAR-TAF:

METAR-TAF

Letiště :

Stokmarknes, Norsko

zeměpisná šířka: 68-35N, zeměpisná délka: 015-01E, výška: 0 m

Aktuální stav počasí

Zpráva byla vytvořena před 2 hodinami a 15 minutami, v 19:20 UTC
Východní vítr 10 kt
Teplota 0°C
Vlhkost vzduchu 74%
Tlak 1005 hPa
Viditelnost 10 km a více
Skoro jasno ve výšce 2500 ft
Polojasno ve výšce 3800 ft
Oblačno až skoro zataženo ve výšce 12000 ft

METAR: ENSK 121920Z 10010KT 9999 FEW025 SCT038 BKN120 00/M04 Q1005

Čas: 22:35 (21:35 UTC)


TAF: chybějící

Stav a předpovědi počasí z více než 4 000 letišť (zprávy METAR a TAF).

Červené a žluté tečky na mapě představují dostupné meteorologické stanice.

Když kurzor umístíte na tečku, zobrazí se název stanice.

Pak kliknutím zobrazíte stav a předpověď počasí.

Chcete-li změnit mapu, kliknutím na zelené tlačítko se znaménkem +mapu přiblížíte, kliknutím na zelené tlačítko se znaménkem – mapu oddálíte a kliknutím na zelené šipky přejdete na sousední mapy.


METAR-TAF: